Terminal Aerodrome Forecast
Issued by NWS

Home | Current Version | Previous Version | Text Only | Print | Product List | Glossary On
Versions: 1 2 3 4 5 6 7 8 9 10 11 12 13 14 15 16 17
000
FTUS43 KICT 021120
TAFSLN
TAF
KSLN 021120Z 0212/0312 07006KT P6SM FEW009 SCT015
      TEMPO 0212/0214 SCT009 BKN015
     FM021400 06009KT P6SM VCTS SCT030 BKN060CB
      TEMPO 0214/0217 VRB15G25KT 5SM TSRA BKN030CB
     FM021900 01007KT P6SM SCT060 BKN150=

USA.gov is the U.S. government's official web portal to all federal, state and local government web resources and services.